Time;durP1;ratioP1;P1;durP2;ratioP2;P2;SDS_P1;SDS_P2;PMS_P1;PMS_P2;Temp;Humidity;BMP_temperature;BMP_pressure;BME280_temperature;BME280_humidity;BME280_pressure;Samples;Min_cycle;Max_cycle;Signal;HPM_P1;HPM_P2
2021/05/29 00:00:45;;;;;;;16.45;14.10;;;;;;;;;;5066512;28;20188;-74
2021/05/29 00:03:11;;;;;;;19.50;14.80;;;;;;;;;;5060665;28;20640;-72
2021/05/29 00:05:37;;;;;;;18.23;15.65;;;;;;;;;;5062760;28;20267;-75
2021/05/29 00:08:03;;;;;;;22.15;16.58;;;;;;;;;;5056128;28;20216;-72
2021/05/29 00:10:29;;;;;;;19.05;14.75;;;;;;;;;;5086102;28;20210;-72
2021/05/29 00:12:55;;;;;;;19.08;14.50;;;;;;;;;;5072805;28;20195;-73
2021/05/29 00:15:21;;;;;;;17.73;14.40;;;;;;;;;;5062910;28;20186;-73
2021/05/29 00:17:47;;;;;;;19.90;16.40;;;;;;;;;;5056899;28;20517;-73
2021/05/29 00:20:14;;;;;;;18.73;16.10;;;;;;;;;;5068842;28;20191;-74
2021/05/29 00:22:40;;;;;;;22.27;16.75;;;;;;;;;;5069700;28;20177;-72
2021/05/29 00:25:06;;;;;;;19.27;15.50;;;;;;;;;;5053794;28;20184;-76
2021/05/29 00:27:32;;;;;;;17.17;15.23;;;;;;;;;;5064704;28;20212;-73
2021/05/29 00:29:58;;;;;;;18.60;15.65;;;;;;;;;;5074981;28;20195;-73
2021/05/29 00:32:24;;;;;;;20.88;17.45;;;;;;;;;;5082278;28;20181;-75
2021/05/29 00:34:50;;;;;;;20.70;16.40;;;;;;;;;;5077560;28;20636;-74
2021/05/29 00:37:16;;;;;;;21.42;16.52;;;;;;;;;;5059460;28;20416;-73
2021/05/29 00:39:42;;;;;;;17.58;15.68;;;;;;;;;;5059384;28;20204;-73
2021/05/29 00:42:08;;;;;;;22.15;18.33;;;;;;;;;;5069079;28;20223;-75
2021/05/29 00:44:54;;;;;;;20.92;18.35;;;;;;;;;;5061834;28;20180;-73
2021/05/29 00:47:21;;;;;;;22.85;18.60;;;;;;;;;;5054685;28;20173;-71
2021/05/29 00:49:47;;;;;;;21.67;19.27;;;;;;;;;;5064452;28;20249;-73
2021/05/29 00:52:14;;;;;;;24.05;18.35;;;;;;;;;;5065765;28;20184;-73
2021/05/29 00:54:40;;;;;;;23.25;18.33;;;;;;;;;;5081215;28;20185;-73
2021/05/29 00:57:06;;;;;;;23.73;18.33;;;;;;;;;;5062681;28;20184;-73
2021/05/29 00:59:33;;;;;;;22.17;17.85;;;;;;;;;;5076220;28;20208;-74
2021/05/29 01:01:59;;;;;;;25.70;18.23;;;;;;;;;;5061277;28;20212;-75
2021/05/29 01:04:25;;;;;;;24.35;18.60;;;;;;;;;;5074099;28;20525;-74
2021/05/29 01:06:51;;;;;;;22.42;16.70;;;;;;;;;;5061100;28;20188;-74
2021/05/29 01:09:17;;;;;;;19.30;17.08;;;;;;;;;;5057810;28;20181;-74
2021/05/29 01:11:43;;;;;;;22.52;18.70;;;;;;;;;;5084651;28;20540;-72
2021/05/29 01:14:09;;;;;;;21.15;18.42;;;;;;;;;;5066567;28;20181;-75
2021/05/29 01:19:04;;;;;;;19.65;16.48;;;;;;;;;;5052813;28;20197;-74
2021/05/29 01:21:30;;;;;;;25.48;18.88;;;;;;;;;;5063646;28;20196;-73
2021/05/29 01:23:56;;;;;;;19.60;17.50;;;;;;;;;;5053615;28;20657;-73
2021/05/29 01:26:23;;;;;;;24.25;20.13;;;;;;;;;;5058716;28;20185;-72
2021/05/29 01:28:54;;;;;;;21.45;17.77;;;;;;;;;;5059882;28;20192;-75
2021/05/29 01:31:25;;;;;;;21.42;18.98;;;;;;;;;;5062016;28;20754;-74
2021/05/29 01:33:54;;;;;;;20.55;17.67;;;;;;;;;;5062133;28;20185;-72
2021/05/29 01:36:21;;;;;;;20.20;17.70;;;;;;;;;;5063825;28;20547;-71
2021/05/29 01:38:47;;;;;;;21.23;15.40;;;;;;;;;;5068488;28;20667;-75
2021/05/29 01:41:14;;;;;;;19.42;14.70;;;;;;;;;;5061015;28;20201;-73
2021/05/29 01:43:42;;;;;;;15.45;13.75;;;;;;;;;;5071339;28;20172;-75
2021/05/29 01:46:11;;;;;;;19.85;14.23;;;;;;;;;;5056593;28;20177;-73
2021/05/29 01:48:40;;;;;;;17.35;14.30;;;;;;;;;;5052576;28;20177;-72
2021/05/29 01:51:06;;;;;;;18.52;13.57;;;;;;;;;;5060318;28;20203;-72
2021/05/29 01:53:33;;;;;;;18.05;14.73;;;;;;;;;;5070785;28;20237;-74
2021/05/29 01:55:59;;;;;;;18.77;13.80;;;;;;;;;;5079853;28;20284;-72
2021/05/29 01:58:25;;;;;;;17.77;13.88;;;;;;;;;;5052647;28;20201;-75
2021/05/29 02:00:51;;;;;;;23.10;15.48;;;;;;;;;;5074912;28;20201;-74
2021/05/29 02:03:17;;;;;;;22.45;15.30;;;;;;;;;;5052509;28;20252;-75
2021/05/29 02:05:45;;;;;;;21.60;16.67;;;;;;;;;;5059832;28;20269;-75
2021/05/29 02:08:12;;;;;;;19.58;15.43;;;;;;;;;;5070736;28;20661;-72
2021/05/29 02:10:39;;;;;;;23.25;17.38;;;;;;;;;;5069600;28;20204;-74
2021/05/29 02:13:25;;;;;;;26.25;19.25;;;;;;;;;;5070934;28;20279;-74
2021/05/29 02:15:52;;;;;;;23.15;18.05;;;;;;;;;;5052371;28;20508;-74
2021/05/29 02:18:18;;;;;;;22.15;18.58;;;;;;;;;;5061845;28;20598;-72
2021/05/29 02:20:49;;;;;;;25.85;18.55;;;;;;;;;;5065283;28;20196;-70
2021/05/29 02:23:17;;;;;;;23.38;18.85;;;;;;;;;;5055727;28;20177;-70
2021/05/29 02:25:43;;;;;;;30.17;19.77;;;;;;;;;;5067810;28;20275;-72
2021/05/29 02:28:09;;;;;;;26.05;19.38;;;;;;;;;;5061121;28;20183;-74
2021/05/29 02:30:35;;;;;;;26.00;20.40;;;;;;;;;;5085576;28;20278;-72
2021/05/29 02:33:03;;;;;;;22.20;18.25;;;;;;;;;;5073899;28;20180;-72
2021/05/29 02:35:29;;;;;;;27.40;19.83;;;;;;;;;;5084600;28;20195;-76
2021/05/29 02:37:55;;;;;;;26.98;20.90;;;;;;;;;;5065057;28;20191;-72
2021/05/29 02:40:24;;;;;;;25.52;20.63;;;;;;;;;;5080252;28;20196;-75
2021/05/29 02:42:50;;;;;;;24.15;18.40;;;;;;;;;;5068251;28;20338;-74
2021/05/29 02:45:16;;;;;;;26.13;19.90;;;;;;;;;;5056902;28;20729;-72
2021/05/29 02:47:42;;;;;;;24.83;19.58;;;;;;;;;;5065835;28;20262;-73
2021/05/29 02:50:09;;;;;;;26.20;20.67;;;;;;;;;;5056354;28;20599;-73
2021/05/29 02:52:36;;;;;;;27.67;20.67;;;;;;;;;;5054081;28;20970;-73
2021/05/29 02:55:02;;;;;;;25.48;21.30;;;;;;;;;;5055111;28;20260;-74
2021/05/29 02:57:28;;;;;;;26.55;21.33;;;;;;;;;;5066289;28;20187;-72
2021/05/29 02:59:54;;;;;;;28.92;20.88;;;;;;;;;;5064140;28;20560;-71
2021/05/29 03:02:20;;;;;;;25.05;20.92;;;;;;;;;;5055416;28;20185;-75
2021/05/29 03:04:46;;;;;;;29.10;22.77;;;;;;;;;;5061427;28;20176;-75
2021/05/29 03:07:12;;;;;;;27.42;21.20;;;;;;;;;;5055116;28;20312;-72
2021/05/29 03:09:39;;;;;;;25.75;20.25;;;;;;;;;;5060096;28;20322;-76
2021/05/29 03:12:05;;;;;;;25.17;19.95;;;;;;;;;;5078412;28;20188;-74
2021/05/29 03:14:31;;;;;;;28.23;21.23;;;;;;;;;;5059412;28;20497;-72
2021/05/29 03:16:57;;;;;;;26.38;20.85;;;;;;;;;;5077617;28;20177;-73
2021/05/29 03:19:23;;;;;;;23.48;19.92;;;;;;;;;;5059749;28;20207;-74
2021/05/29 03:21:49;;;;;;;23.98;19.02;;;;;;;;;;5063050;28;20176;-71
2021/05/29 03:24:16;;;;;;;22.58;18.63;;;;;;;;;;5073195;28;20212;-72
2021/05/29 03:26:42;;;;;;;23.08;18.02;;;;;;;;;;5054844;28;20522;-75
2021/05/29 03:29:08;;;;;;;21.63;16.70;;;;;;;;;;5055565;28;20267;-71
2021/05/29 03:31:34;;;;;;;21.00;15.93;;;;;;;;;;5054688;28;20215;-74
2021/05/29 03:34:00;;;;;;;20.92;15.70;;;;;;;;;;5054448;28;20214;-74
2021/05/29 03:36:26;;;;;;;19.08;14.68;;;;;;;;;;5074000;28;20168;-72
2021/05/29 03:38:52;;;;;;;22.25;14.25;;;;;;;;;;5067221;28;20203;-72
2021/05/29 03:41:18;;;;;;;17.10;13.00;;;;;;;;;;5065943;28;20205;-73
2021/05/29 03:43:44;;;;;;;15.48;12.82;;;;;;;;;;5054265;28;20192;-75
2021/05/29 03:46:10;;;;;;;18.80;13.70;;;;;;;;;;5063452;28;20259;-75
2021/05/29 03:48:37;;;;;;;19.05;15.30;;;;;;;;;;5055469;28;20184;-75
2021/05/29 03:51:03;;;;;;;18.50;14.27;;;;;;;;;;5065805;28;20562;-73
2021/05/29 03:53:29;;;;;;;20.85;15.32;;;;;;;;;;5054346;28;20185;-73
2021/05/29 03:55:56;;;;;;;19.27;15.70;;;;;;;;;;5085734;28;20175;-73
2021/05/29 03:58:22;;;;;;;17.67;14.55;;;;;;;;;;5064469;28;20208;-74
2021/05/29 04:00:48;;;;;;;18.05;14.02;;;;;;;;;;5063247;28;20204;-73
2021/05/29 04:03:14;;;;;;;18.23;14.55;;;;;;;;;;5062875;28;20176;-74
2021/05/29 04:05:40;;;;;;;19.73;15.00;;;;;;;;;;5083487;28;20256;-73
2021/05/29 04:08:06;;;;;;;24.65;15.02;;;;;;;;;;5062875;28;20417;-73
2021/05/29 04:10:35;;;;;;;21.88;15.68;;;;;;;;;;5054877;28;20193;-75
2021/05/29 04:13:01;;;;;;;19.58;15.82;;;;;;;;;;5064681;28;20522;-73
2021/05/29 04:15:28;;;;;;;21.40;15.68;;;;;;;;;;5054015;28;20563;-73
2021/05/29 04:17:54;;;;;;;19.65;15.57;;;;;;;;;;5085209;28;20549;-74
2021/05/29 04:20:22;;;;;;;21.80;17.27;;;;;;;;;;5053506;28;20207;-76
2021/05/29 04:22:48;;;;;;;20.88;15.95;;;;;;;;;;5067248;28;20528;-73
2021/05/29 04:25:16;;;;;;;20.63;16.48;;;;;;;;;;5061715;28;20171;-73
2021/05/29 04:27:42;;;;;;;22.35;16.80;;;;;;;;;;5059594;28;20168;-74
2021/05/29 04:30:10;;;;;;;19.95;16.00;;;;;;;;;;5069404;28;20199;-74
2021/05/29 04:32:36;;;;;;;21.92;16.40;;;;;;;;;;5071164;28;20184;-74
2021/05/29 04:35:02;;;;;;;23.85;16.85;;;;;;;;;;5071282;28;20203;-72
2021/05/29 04:37:28;;;;;;;20.48;15.63;;;;;;;;;;5061911;28;20188;-71
2021/05/29 04:39:54;;;;;;;22.20;17.17;;;;;;;;;;5069289;28;20204;-73
2021/05/29 04:42:20;;;;;;;24.02;19.50;;;;;;;;;;5073765;28;20533;-73
2021/05/29 04:44:46;;;;;;;25.75;19.95;;;;;;;;;;5073424;28;20172;-73
2021/05/29 04:47:12;;;;;;;23.75;18.67;;;;;;;;;;5056451;28;20176;-74
2021/05/29 04:49:38;;;;;;;23.17;19.15;;;;;;;;;;5058353;28;20198;-72
2021/05/29 04:52:05;;;;;;;24.70;18.17;;;;;;;;;;5056074;28;20185;-74
2021/05/29 04:54:31;;;;;;;20.83;18.13;;;;;;;;;;5057177;28;20190;-72
2021/05/29 04:56:57;;;;;;;19.13;15.25;;;;;;;;;;5082538;28;20181;-73
2021/05/29 04:59:23;;;;;;;20.83;16.33;;;;;;;;;;5060883;28;20200;-73
2021/05/29 05:01:49;;;;;;;19.70;15.80;;;;;;;;;;5059247;28;20181;-74
2021/05/29 05:04:16;;;;;;;22.80;15.80;;;;;;;;;;5070265;28;20175;-74
2021/05/29 05:06:42;;;;;;;20.67;14.93;;;;;;;;;;5081773;28;20431;-76
2021/05/29 05:09:08;;;;;;;20.67;14.63;;;;;;;;;;5063098;28;20181;-73
2021/05/29 05:11:35;;;;;;;16.02;12.27;;;;;;;;;;5069494;28;20200;-72
2021/05/29 05:14:01;;;;;;;17.88;13.35;;;;;;;;;;5067239;28;20203;-73
2021/05/29 05:16:27;;;;;;;18.17;12.27;;;;;;;;;;5058532;28;20259;-75
2021/05/29 05:18:53;;;;;;;16.55;11.90;;;;;;;;;;5066896;28;20287;-76
2021/05/29 05:21:21;;;;;;;13.77;10.50;;;;;;;;;;5065133;28;20204;-73
2021/05/29 05:23:49;;;;;;;15.45;11.20;;;;;;;;;;5059703;28;20185;-72
2021/05/29 05:26:15;;;;;;;12.73;10.80;;;;;;;;;;5055095;28;20634;-73
2021/05/29 05:28:41;;;;;;;14.13;10.93;;;;;;;;;;5054062;28;20187;-75
2021/05/29 05:31:07;;;;;;;13.83;11.30;;;;;;;;;;5054369;28;20280;-72
2021/05/29 05:33:39;;;;;;;13.77;11.38;;;;;;;;;;5063409;28;20489;-73
2021/05/29 05:36:07;;;;;;;17.08;12.43;;;;;;;;;;5068162;28;20223;-73
2021/05/29 05:38:33;;;;;;;12.73;10.95;;;;;;;;;;5061992;28;20204;-72
2021/05/29 05:40:59;;;;;;;13.35;11.73;;;;;;;;;;5075953;28;20270;-72
2021/05/29 05:43:25;;;;;;;13.13;11.63;;;;;;;;;;5066401;28;20181;-75
2021/05/29 05:45:51;;;;;;;15.60;12.00;;;;;;;;;;5085429;28;20183;-74
2021/05/29 05:48:17;;;;;;;12.90;11.05;;;;;;;;;;5061542;28;20181;-71
2021/05/29 05:50:54;;;;;;;12.65;9.68;;;;;;;;;;5068991;28;20240;-73
2021/05/29 05:53:22;;;;;;;11.88;9.75;;;;;;;;;;5065646;28;20181;-72
2021/05/29 05:55:52;;;;;;;12.77;11.32;;;;;;;;;;5068898;28;20500;-72
2021/05/29 05:58:17;;;;;;;14.88;11.02;;;;;;;;;;5060566;28;20262;-75
2021/05/29 06:00:43;;;;;;;14.77;11.33;;;;;;;;;;5059995;28;20224;-74
2021/05/29 06:03:09;;;;;;;12.43;11.13;;;;;;;;;;5073906;28;20489;-73
2021/05/29 06:05:35;;;;;;;13.23;10.80;;;;;;;;;;5074954;28;20188;-73
2021/05/29 06:08:01;;;;;;;11.70;9.70;;;;;;;;;;5075940;28;20799;-76
2021/05/29 06:10:27;;;;;;;11.63;9.90;;;;;;;;;;5076685;28;20445;-75
2021/05/29 06:12:54;;;;;;;14.47;11.10;;;;;;;;;;5068373;28;20185;-75
2021/05/29 06:20:31;;;;;;;14.00;10.18;;;;;;;;;;5076560;28;20287;-75
2021/05/29 06:22:58;;;;;;;11.45;9.18;;;;;;;;;;5074374;28;20204;-75
2021/05/29 06:25:24;;;;;;;16.77;11.70;;;;;;;;;;5075834;28;20175;-75
2021/05/29 06:27:50;;;;;;;14.25;11.32;;;;;;;;;;5075867;28;20214;-74
2021/05/29 06:30:16;;;;;;;13.43;10.43;;;;;;;;;;5061887;28;20279;-73
2021/05/29 06:32:42;;;;;;;16.52;12.25;;;;;;;;;;5055695;28;20510;-74
2021/05/29 06:35:09;;;;;;;13.27;11.38;;;;;;;;;;5055783;28;20181;-74
2021/05/29 06:37:36;;;;;;;13.85;12.45;;;;;;;;;;5055470;28;20177;-73
2021/05/29 06:40:04;;;;;;;16.33;13.45;;;;;;;;;;5071583;28;20673;-76
2021/05/29 06:42:30;;;;;;;24.55;19.20;;;;;;;;;;5071559;28;20213;-75
2021/05/29 06:44:56;;;;;;;29.83;17.77;;;;;;;;;;5055421;28;20177;-75
2021/05/29 06:47:22;;;;;;;20.87;15.80;;;;;;;;;;5077098;28;20188;-74
2021/05/29 06:49:48;;;;;;;18.92;16.05;;;;;;;;;;5054166;28;20792;-76
2021/05/29 06:52:16;;;;;;;18.30;15.63;;;;;;;;;;5065206;28;20192;-77
2021/05/29 06:55:07;;;;;;;21.08;16.92;;;;;;;;;;5055335;28;20675;-76
2021/05/29 07:00:19;;;;;;;21.15;16.30;;;;;;;;;;5059421;28;20224;-79
2021/05/29 07:02:45;;;;;;;22.58;19.08;;;;;;;;;;5064392;28;20186;-80
2021/05/29 07:05:11;;;;;;;20.75;17.95;;;;;;;;;;5067518;28;20181;-78
2021/05/29 07:07:38;;;;;;;18.13;16.15;;;;;;;;;;5053510;28;20668;-78
2021/05/29 07:10:05;;;;;;;30.23;21.05;;;;;;;;;;5074510;28;20200;-77
2021/05/29 07:12:31;;;;;;;17.05;14.23;;;;;;;;;;5051427;28;20212;-78
2021/05/29 07:14:58;;;;;;;15.02;13.43;;;;;;;;;;5059835;28;20200;-79
2021/05/29 07:17:30;;;;;;;18.17;13.93;;;;;;;;;;5051534;28;20597;-79
2021/05/29 07:19:56;;;;;;;14.52;12.57;;;;;;;;;;5072649;28;20226;-80
2021/05/29 07:22:22;;;;;;;17.25;14.80;;;;;;;;;;5066246;28;20259;-79
2021/05/29 07:24:48;;;;;;;18.52;16.10;;;;;;;;;;5058346;28;20179;-79
2021/05/29 07:27:14;;;;;;;16.55;14.82;;;;;;;;;;5067782;28;20271;-78
2021/05/29 07:29:40;;;;;;;17.20;14.80;;;;;;;;;;5060292;28;20231;-76
2021/05/29 07:32:06;;;;;;;17.20;15.40;;;;;;;;;;5058060;28;20192;-80
2021/05/29 07:34:32;;;;;;;17.88;15.93;;;;;;;;;;5050685;28;20492;-77
2021/05/29 07:36:58;;;;;;;20.38;17.98;;;;;;;;;;5067135;28;20771;-77
2021/05/29 07:39:25;;;;;;;18.15;16.25;;;;;;;;;;5066066;28;20243;-78
2021/05/29 07:41:51;;;;;;;18.65;16.67;;;;;;;;;;5070794;28;20185;-80
2021/05/29 07:44:17;;;;;;;18.08;16.17;;;;;;;;;;5073238;28;20192;-78
2021/05/29 07:46:43;;;;;;;17.73;15.95;;;;;;;;;;5050754;28;20181;-78
2021/05/29 07:49:09;;;;;;;19.92;15.75;;;;;;;;;;5059703;28;20264;-77
2021/05/29 07:51:36;;;;;;;18.10;15.35;;;;;;;;;;5050750;28;20263;-78
2021/05/29 07:54:03;;;;;;;19.10;17.10;;;;;;;;;;5057506;28;20544;-76
2021/05/29 07:56:29;;;;;;;18.98;16.98;;;;;;;;;;5050532;28;20218;-77
2021/05/29 07:58:58;;;;;;;19.92;16.48;;;;;;;;;;5055291;28;20212;-78
2021/05/29 08:01:24;;;;;;;17.98;16.13;;;;;;;;;;5054471;28;20230;-78
2021/05/29 08:03:50;;;;;;;18.85;16.83;;;;;;;;;;5060186;28;20226;-79
2021/05/29 08:06:21;;;;;;;16.52;14.73;;;;;;;;;;5076757;28;20189;-76
2021/05/29 08:08:47;;;;;;;17.27;15.43;;;;;;;;;;5073738;28;20889;-74
2021/05/29 08:11:24;;;;;;;16.88;15.10;;;;;;;;;;5055106;28;20220;-77
2021/05/29 08:13:54;;;;;;;17.17;15.38;;;;;;;;;;5051795;28;20185;-74
2021/05/29 08:16:28;;;;;;;15.63;13.82;;;;;;;;;;5050016;28;20201;-74
2021/05/29 08:18:54;;;;;;;14.15;12.70;;;;;;;;;;5050002;28;20250;-74
2021/05/29 08:21:21;;;;;;;12.30;11.10;;;;;;;;;;5049902;28;20238;-74
2021/05/29 08:23:47;;;;;;;10.93;9.93;;;;;;;;;;5049794;28;20181;-74
2021/05/29 08:26:14;;;;;;;11.05;10.05;;;;;;;;;;5063462;28;20177;-74
2021/05/29 08:28:40;;;;;;;10.32;8.93;;;;;;;;;;5060761;28;20183;-74
2021/05/29 08:31:06;;;;;;;12.73;10.20;;;;;;;;;;5050220;28;20749;-75
2021/05/29 08:33:33;;;;;;;10.95;9.98;;;;;;;;;;5049542;28;20185;-76
2021/05/29 08:35:59;;;;;;;13.75;12.38;;;;;;;;;;5049792;28;20185;-74
2021/05/29 08:38:25;;;;;;;48.40;40.45;;;;;;;;;;5053335;28;20245;-73
2021/05/29 08:40:51;;;;;;;11.63;10.00;;;;;;;;;;5069676;28;20192;-76
2021/05/29 08:43:17;;;;;;;11.23;10.23;;;;;;;;;;5069680;28;20263;-74
2021/05/29 08:45:44;;;;;;;10.77;9.75;;;;;;;;;;5051855;28;20227;-75
2021/05/29 08:48:10;;;;;;;10.02;9.02;;;;;;;;;;5049551;28;20260;-74
2021/05/29 08:50:37;;;;;;;10.45;9.45;;;;;;;;;;5049379;28;20553;-76
2021/05/29 08:53:03;;;;;;;12.98;10.23;;;;;;;;;;5049345;28;20187;-77
2021/05/29 08:55:29;;;;;;;11.43;10.32;;;;;;;;;;5056900;28;20223;-76
2021/05/29 08:57:55;;;;;;;11.40;10.15;;;;;;;;;;5069284;28;20176;-74
2021/05/29 09:00:23;;;;;;;10.85;9.90;;;;;;;;;;5054714;28;20606;-76
2021/05/29 09:02:56;;;;;;;12.00;10.20;;;;;;;;;;5051381;28;20184;-76
2021/05/29 09:05:33;;;;;;;12.80;10.82;;;;;;;;;;5049217;28;20173;-74
2021/05/29 09:08:05;;;;;;;12.02;10.80;;;;;;;;;;5049220;28;20180;-76
2021/05/29 09:10:34;;;;;;;12.60;11.45;;;;;;;;;;5049035;28;20228;-75
2021/05/29 09:13:00;;;;;;;13.60;11.63;;;;;;;;;;5049077;28;20238;-77
2021/05/29 09:15:41;;;;;;;13.73;12.32;;;;;;;;;;5049373;28;21012;-75
2021/05/29 09:18:07;;;;;;;12.88;11.48;;;;;;;;;;5048957;28;20188;-76
2021/05/29 09:20:33;;;;;;;12.93;11.63;;;;;;;;;;5049068;28;20219;-74
2021/05/29 09:23:01;;;;;;;14.65;13.25;;;;;;;;;;5049095;28;20641;-75
2021/05/29 09:25:28;;;;;;;14.13;12.73;;;;;;;;;;5066606;28;20602;-79
2021/05/29 09:27:59;;;;;;;15.37;13.77;;;;;;;;;;5064106;28;20172;-79
2021/05/29 09:30:48;;;;;;;12.57;11.37;;;;;;;;;;5060639;28;20589;-78
2021/05/29 09:33:14;;;;;;;13.25;11.75;;;;;;;;;;5064466;28;20480;-77
2021/05/29 09:35:40;;;;;;;13.63;11.10;;;;;;;;;;5053068;28;20189;-77
2021/05/29 09:38:06;;;;;;;11.30;10.30;;;;;;;;;;5054392;28;20407;-79
2021/05/29 09:40:33;;;;;;;12.93;11.57;;;;;;;;;;5072604;28;20446;-76
2021/05/29 09:43:04;;;;;;;10.97;10.00;;;;;;;;;;5072919;28;20426;-77
2021/05/29 09:45:31;;;;;;;11.25;10.32;;;;;;;;;;5052894;28;20446;-77
2021/05/29 09:48:13;;;;;;;11.20;10.00;;;;;;;;;;5052759;28;20185;-75
2021/05/29 09:50:57;;;;;;;10.20;9.00;;;;;;;;;;5052980;28;20447;-78
2021/05/29 09:53:27;;;;;;;11.67;9.87;;;;;;;;;;5052746;28;20418;-78
2021/05/29 09:55:54;;;;;;;10.38;9.38;;;;;;;;;;5054934;28;20458;-76
2021/05/29 09:58:20;;;;;;;10.40;9.50;;;;;;;;;;5052291;28;20676;-77
2021/05/29 10:00:47;;;;;;;11.70;9.23;;;;;;;;;;5060668;28;21306;-79
2021/05/29 10:03:14;;;;;;;11.50;8.60;;;;;;;;;;5057598;28;20173;-78
2021/05/29 10:05:48;;;;;;;11.90;8.30;;;;;;;;;;5059057;28;20909;-77
2021/05/29 10:08:16;;;;;;;9.50;8.50;;;;;;;;;;5056214;28;20444;-77
2021/05/29 10:10:42;;;;;;;9.47;8.40;;;;;;;;;;5071565;28;20481;-77
2021/05/29 10:13:08;;;;;;;8.47;7.77;;;;;;;;;;5065645;28;20435;-77
2021/05/29 10:15:34;;;;;;;10.53;9.33;;;;;;;;;;5069263;28;20435;-76
2021/05/29 10:18:03;;;;;;;10.80;9.80;;;;;;;;;;5066103;28;20432;-76
2021/05/29 10:20:32;;;;;;;10.40;9.30;;;;;;;;;;5068571;28;20465;-77
2021/05/29 10:22:58;;;;;;;11.60;10.50;;;;;;;;;;5065754;28;20425;-78
2021/05/29 10:25:24;;;;;;;9.67;8.77;;;;;;;;;;5061356;28;20450;-76
2021/05/29 10:27:51;;;;;;;9.97;9.07;;;;;;;;;;5076028;28;20419;-79
2021/05/29 10:30:19;;;;;;;9.93;9.10;;;;;;;;;;5065317;28;21021;-76
2021/05/29 10:33:05;;;;;;;9.13;8.23;;;;;;;;;;5055511;28;20415;-77
2021/05/29 10:35:42;;;;;;;8.67;7.87;;;;;;;;;;5057236;28;20424;-77
2021/05/29 10:38:08;;;;;;;9.40;8.50;;;;;;;;;;5053658;28;20416;-77
2021/05/29 10:40:38;;;;;;;8.93;8.20;;;;;;;;;;5069594;28;20456;-80
2021/05/29 10:43:08;;;;;;;8.47;7.67;;;;;;;;;;5052162;28;20506;-78
2021/05/29 10:45:38;;;;;;;8.97;8.17;;;;;;;;;;5056594;28;20547;-77
2021/05/29 10:48:06;;;;;;;8.53;7.83;;;;;;;;;;5071260;28;20446;-76
2021/05/29 10:50:53;;;;;;;8.27;7.47;;;;;;;;;;5054554;28;20469;-77
2021/05/29 10:53:35;;;;;;;8.87;7.40;;;;;;;;;;5060899;28;20417;-78
2021/05/29 10:56:21;;;;;;;8.07;7.27;;;;;;;;;;5061094;28;20430;-77
2021/05/29 10:59:18;;;;;;;7.50;6.90;;;;;;;;;;5052158;28;20544;-79
2021/05/29 11:01:50;;;;;;;7.60;6.90;;;;;;;;;;5059408;28;20441;-78
2021/05/29 11:04:16;;;;;;;10.00;7.97;;;;;;;;;;5069208;28;20422;-78
2021/05/29 11:06:43;;;;;;;8.30;7.60;;;;;;;;;;5056556;28;20438;-78
2021/05/29 11:09:10;;;;;;;8.37;7.60;;;;;;;;;;5060084;28;20930;-79
2021/05/29 11:11:36;;;;;;;8.43;7.83;;;;;;;;;;5053680;28;20482;-80
2021/05/29 11:14:03;;;;;;;9.13;8.43;;;;;;;;;;5058659;28;20450;-77
2021/05/29 11:16:50;;;;;;;8.77;8.00;;;;;;;;;;5053586;28;20840;-78
2021/05/29 11:19:18;;;;;;;8.67;7.87;;;;;;;;;;5052026;28;20477;-77
2021/05/29 11:22:06;;;;;;;9.43;8.50;;;;;;;;;;5051455;28;20426;-80
2021/05/29 11:24:33;;;;;;;9.53;8.73;;;;;;;;;;5063527;28;20434;-77
2021/05/29 11:27:00;;;;;;;11.00;8.60;;;;;;;;;;5050959;28;20406;-77
2021/05/29 11:29:26;;;;;;;10.13;9.23;;;;;;;;;;5055352;28;20437;-76
2021/05/29 11:31:53;;;;;;;9.30;8.50;;;;;;;;;;5051126;28;20417;-80
2021/05/29 11:34:20;;;;;;;10.43;9.53;;;;;;;;;;5050602;28;20430;-80
2021/05/29 11:36:46;;;;;;;9.33;8.53;;;;;;;;;;5055385;28;20427;-77
2021/05/29 11:39:13;;;;;;;9.37;8.50;;;;;;;;;;5051159;28;20463;-80
2021/05/29 11:41:40;;;;;;;10.80;9.90;;;;;;;;;;5063916;28;20419;-78
2021/05/29 11:44:19;;;;;;;11.00;10.10;;;;;;;;;;5070645;28;20415;-75
2021/05/29 11:46:45;;;;;;;11.50;10.50;;;;;;;;;;5055781;28;20411;-76
2021/05/29 11:49:11;;;;;;;11.70;10.77;;;;;;;;;;5053178;28;20814;-78
2021/05/29 11:51:41;;;;;;;12.20;11.10;;;;;;;;;;5055518;28;20527;-77
2021/05/29 11:54:14;;;;;;;13.13;12.03;;;;;;;;;;5056623;28;20434;-77
2021/05/29 11:56:42;;;;;;;12.00;11.00;;;;;;;;;;5069323;28;20427;-76
2021/05/29 11:59:09;;;;;;;12.10;11.20;;;;;;;;;;5070204;28;20902;-79
2021/05/29 12:01:55;;;;;;;12.30;11.20;;;;;;;;;;5053310;28;20519;-78
2021/05/29 12:04:22;;;;;;;11.17;10.13;;;;;;;;;;5055974;28;20458;-77
2021/05/29 12:06:55;;;;;;;10.53;9.63;;;;;;;;;;5056477;28;20446;-78
2021/05/29 12:09:23;;;;;;;11.80;11.00;;;;;;;;;;5055940;28;20518;-78
2021/05/29 12:11:57;;;;;;;10.30;9.43;;;;;;;;;;5050245;28;20422;-78
2021/05/29 12:14:26;;;;;;;10.13;9.33;;;;;;;;;;5052395;28;20435;-79
2021/05/29 12:16:56;;;;;;;10.63;9.73;;;;;;;;;;5059498;28;20496;-78
2021/05/29 12:19:28;;;;;;;9.67;8.93;;;;;;;;;;5079920;28;20470;-79
2021/05/29 12:21:55;;;;;;;9.80;9.10;;;;;;;;;;5051812;28;20436;-79
2021/05/29 12:24:23;;;;;;;10.40;9.50;;;;;;;;;;5049775;28;20422;-78
2021/05/29 12:26:50;;;;;;;10.83;10.03;;;;;;;;;;5058870;28;20459;-78
2021/05/29 12:29:20;;;;;;;10.67;9.87;;;;;;;;;;5061534;28;20420;-78
2021/05/29 12:32:04;;;;;;;11.63;10.73;;;;;;;;;;5056268;28;20773;-77
2021/05/29 12:34:32;;;;;;;12.37;11.33;;;;;;;;;;5057253;28;20433;-78
2021/05/29 12:36:59;;;;;;;13.43;12.30;;;;;;;;;;5056706;28;20970;-79
2021/05/29 12:39:42;;;;;;;12.93;12.03;;;;;;;;;;5049614;28;20463;-78
2021/05/29 12:42:19;;;;;;;12.90;11.90;;;;;;;;;;5054592;28;20823;-78
2021/05/29 12:44:49;;;;;;;12.50;11.40;;;;;;;;;;5055326;28;20481;-76
2021/05/29 12:47:22;;;;;;;13.17;12.10;;;;;;;;;;5055307;28;20422;-79
2021/05/29 12:49:48;;;;;;;13.13;11.93;;;;;;;;;;5057436;28;20454;-78
2021/05/29 12:52:22;;;;;;;13.60;12.50;;;;;;;;;;5069988;28;20421;-80
2021/05/29 12:54:48;;;;;;;13.30;12.23;;;;;;;;;;5056429;28;20518;-79
2021/05/29 12:57:14;;;;;;;13.57;12.47;;;;;;;;;;5069669;28;20982;-77
2021/05/29 12:59:40;;;;;;;14.13;13.00;;;;;;;;;;5067835;28;20474;-78
2021/05/29 13:07:38;;;;;;;12.53;11.33;;;;;;;;;;5049445;28;20454;-77
2021/05/29 13:10:28;;;;;;;13.20;12.10;;;;;;;;;;5058998;28;20494;-78
2021/05/29 13:12:59;;;;;;;13.43;12.17;;;;;;;;;;5048740;28;20785;-77
2021/05/29 13:15:25;;;;;;;11.77;10.87;;;;;;;;;;5057174;28;20489;-77
2021/05/29 13:18:07;;;;;;;11.43;10.43;;;;;;;;;;5049150;28;20956;-81
2021/05/29 13:20:33;;;;;;;11.63;10.67;;;;;;;;;;5055423;28;20463;-79
2021/05/29 13:23:00;;;;;;;12.10;11.00;;;;;;;;;;5049094;28;20423;-79
2021/05/29 13:25:36;;;;;;;12.67;11.57;;;;;;;;;;5053389;28;20522;-80
2021/05/29 13:28:07;;;;;;;11.20;10.20;;;;;;;;;;5055299;28;20436;-79
2021/05/29 13:30:33;;;;;;;10.83;9.93;;;;;;;;;;5053422;28;20455;-78
2021/05/29 13:33:04;;;;;;;11.30;10.30;;;;;;;;;;5048850;28;21146;-80
2021/05/29 13:35:30;;;;;;;11.20;10.20;;;;;;;;;;5065439;28;20426;-76
2021/05/29 13:37:56;;;;;;;11.83;10.13;;;;;;;;;;5068872;28;20454;-77
2021/05/29 13:40:22;;;;;;;12.13;11.07;;;;;;;;;;5067001;28;20823;-78
2021/05/29 13:42:48;;;;;;;11.67;10.60;;;;;;;;;;5048988;28;20419;-76
2021/05/29 13:45:22;;;;;;;12.03;10.93;;;;;;;;;;5062021;28;20426;-81
2021/05/29 13:47:49;;;;;;;12.23;11.13;;;;;;;;;;5048842;28;20417;-80
2021/05/29 13:50:16;;;;;;;11.63;10.47;;;;;;;;;;5059152;28;20537;-77
2021/05/29 13:52:42;;;;;;;12.50;11.40;;;;;;;;;;5049050;28;20417;-77
2021/05/29 13:55:09;;;;;;;11.53;10.70;;;;;;;;;;5058489;28;20447;-79
2021/05/29 13:57:35;;;;;;;12.60;11.47;;;;;;;;;;5068829;28;20414;-77
2021/05/29 14:00:01;;;;;;;11.83;10.93;;;;;;;;;;5065480;28;21154;-80
2021/05/29 14:02:28;;;;;;;12.17;10.80;;;;;;;;;;5058959;28;20456;-78
2021/05/29 14:04:54;;;;;;;11.23;10.13;;;;;;;;;;5051518;28;20930;-80
2021/05/29 14:07:21;;;;;;;12.40;11.10;;;;;;;;;;5051617;28;20528;-77
2021/05/29 14:09:47;;;;;;;11.43;10.40;;;;;;;;;;5051458;28;20443;-80
2021/05/29 14:12:13;;;;;;;11.17;10.13;;;;;;;;;;5050585;28;20415;-79
2021/05/29 14:14:39;;;;;;;10.83;9.93;;;;;;;;;;5063878;28;20426;-78
2021/05/29 14:17:06;;;;;;;12.10;11.00;;;;;;;;;;5052433;28;20423;-81
2021/05/29 14:19:32;;;;;;;10.90;10.00;;;;;;;;;;5057129;28;20469;-80
2021/05/29 14:21:58;;;;;;;11.17;10.17;;;;;;;;;;5062339;28;20861;-81
2021/05/29 14:24:24;;;;;;;11.47;10.47;;;;;;;;;;5052397;28;20993;-81
2021/05/29 14:26:50;;;;;;;12.40;11.40;;;;;;;;;;5052394;28;20501;-77
2021/05/29 14:29:16;;;;;;;11.80;10.70;;;;;;;;;;5077954;28;20514;-76
2021/05/29 14:31:42;;;;;;;10.80;9.93;;;;;;;;;;5052421;28;20422;-80
2021/05/29 14:34:09;;;;;;;11.43;10.43;;;;;;;;;;5064822;28;20434;-82
2021/05/29 14:36:35;;;;;;;12.90;11.73;;;;;;;;;;5061706;28;20776;-80
2021/05/29 14:39:02;;;;;;;12.27;11.03;;;;;;;;;;5075707;28;20466;-79
2021/05/29 14:41:28;;;;;;;10.70;9.80;;;;;;;;;;5052151;28;20938;-81